sensor_id;sensor_type;location;lat;lon;timestamp;pressure;altitude;pressure_sealevel;temperature;humidity
79463;BME280;68931;47.286;18.756;2023-10-31T00:00:04;99678.31;;;11.13;95.69
79463;BME280;68931;47.286;18.756;2023-10-31T00:00:36;99690.13;;;11.18;95.92
79463;BME280;68931;47.286;18.756;2023-10-31T00:01:08;99682.16;;;11.20;95.93
79463;BME280;68931;47.286;18.756;2023-10-31T00:01:45;99659.03;;;11.01;95.96
79463;BME280;68931;47.286;18.756;2023-10-31T00:02:17;99690.13;;;11.18;95.52
79463;BME280;68931;47.286;18.756;2023-10-31T00:02:49;99663.84;;;11.07;96.02
79463;BME280;68931;47.286;18.756;2023-10-31T00:03:21;99679.16;;;11.13;96.01
79463;BME280;68931;47.286;18.756;2023-10-31T00:03:56;99685.81;;;11.17;95.95
79463;BME280;68931;47.286;18.756;2023-10-31T00:04:28;99654.97;;;10.97;95.66
79463;BME280;68931;47.286;18.756;2023-10-31T00:05:03;99685.03;;;11.17;96.29
79463;BME280;68931;47.286;18.756;2023-10-31T00:05:35;99692.06;;;11.16;95.67
79463;BME280;68931;47.286;18.756;2023-10-31T00:06:07;99668.47;;;11.04;96.38
79463;BME280;68931;47.286;18.756;2023-10-31T00:06:39;99679.16;;;11.13;96.30
79463;BME280;68931;47.286;18.756;2023-10-31T00:07:11;99677.06;;;11.06;96.32
79463;BME280;68931;47.286;18.756;2023-10-31T00:07:43;99684.59;;;11.10;96.02
79463;BME280;68931;47.286;18.756;2023-10-31T00:08:15;99665.94;;;11.02;95.59
79463;BME280;68931;47.286;18.756;2023-10-31T00:08:47;99678.25;;;11.02;95.08
79463;BME280;68931;47.286;18.756;2023-10-31T00:09:19;99665.47;;;10.97;95.32
79463;BME280;68931;47.286;18.756;2023-10-31T00:09:51;99674.56;;;11.04;95.95
79463;BME280;68931;47.286;18.756;2023-10-31T00:10:23;99665.13;;;11.02;95.67
79463;BME280;68931;47.286;18.756;2023-10-31T00:10:55;99674.09;;;11.10;96.62
79463;BME280;68931;47.286;18.756;2023-10-31T00:11:27;99658.59;;;11.07;95.80
79463;BME280;68931;47.286;18.756;2023-10-31T00:11:59;99667.91;;;11.11;96.20
79463;BME280;68931;47.286;18.756;2023-10-31T00:12:32;99650.00;;;11.05;96.71
79463;BME280;68931;47.286;18.756;2023-10-31T00:13:04;99664.13;;;11.15;96.07
79463;BME280;68931;47.286;18.756;2023-10-31T00:13:36;99647.25;;;11.07;95.94
79463;BME280;68931;47.286;18.756;2023-10-31T00:14:10;99660.59;;;11.04;95.94
79463;BME280;68931;47.286;18.756;2023-10-31T00:14:42;99655.06;;;10.96;95.67
79463;BME280;68931;47.286;18.756;2023-10-31T00:15:14;99656.69;;;11.09;95.48
79463;BME280;68931;47.286;18.756;2023-10-31T00:15:46;99663.50;;;11.12;95.70
79463;BME280;68931;47.286;18.756;2023-10-31T00:16:18;99655.16;;;11.18;95.46
79463;BME280;68931;47.286;18.756;2023-10-31T00:16:50;99644.91;;;11.15;95.58
79463;BME280;68931;47.286;18.756;2023-10-31T00:17:22;99658.31;;;11.23;95.38
79463;BME280;68931;47.286;18.756;2023-10-31T00:17:58;99654.84;;;11.22;95.08
79463;BME280;68931;47.286;18.756;2023-10-31T00:18:30;99664.59;;;11.20;94.59
79463;BME280;68931;47.286;18.756;2023-10-31T00:19:02;99654.31;;;11.17;95.01
79463;BME280;68931;47.286;18.756;2023-10-31T00:19:34;99654.47;;;11.16;94.93
79463;BME280;68931;47.286;18.756;2023-10-31T00:20:06;99663.88;;;11.18;95.01
79463;BME280;68931;47.286;18.756;2023-10-31T00:20:38;99659.34;;;11.20;95.23
79463;BME280;68931;47.286;18.756;2023-10-31T00:21:10;99644.91;;;11.15;94.67
79463;BME280;68931;47.286;18.756;2023-10-31T00:21:42;99646.44;;;11.17;94.46
79463;BME280;68931;47.286;18.756;2023-10-31T00:22:14;99655.06;;;11.19;94.48
79463;BME280;68931;47.286;18.756;2023-10-31T00:22:46;99657.69;;;11.19;94.69
79463;BME280;68931;47.286;18.756;2023-10-31T00:23:18;99657.09;;;11.16;94.83
79463;BME280;68931;47.286;18.756;2023-10-31T00:23:50;99637.59;;;11.07;95.18
79463;BME280;68931;47.286;18.756;2023-10-31T00:24:25;99654.94;;;11.21;94.46
79463;BME280;68931;47.286;18.756;2023-10-31T00:24:57;99650.44;;;11.23;93.96
79463;BME280;68931;47.286;18.756;2023-10-31T00:25:29;99651.38;;;11.22;94.47
79463;BME280;68931;47.286;18.756;2023-10-31T00:26:01;99656.63;;;11.22;94.02
79463;BME280;68931;47.286;18.756;2023-10-31T00:26:33;99649.91;;;11.18;94.10
79463;BME280;68931;47.286;18.756;2023-10-31T00:27:09;99643.81;;;11.17;94.61
79463;BME280;68931;47.286;18.756;2023-10-31T00:27:42;99637.13;;;11.13;94.22
79463;BME280;68931;47.286;18.756;2023-10-31T00:28:14;99651.22;;;11.12;94.61
79463;BME280;68931;47.286;18.756;2023-10-31T00:28:46;99650.16;;;11.15;94.78
79463;BME280;68931;47.286;18.756;2023-10-31T00:29:21;99653.63;;;11.15;94.86
79463;BME280;68931;47.286;18.756;2023-10-31T00:29:53;99649.44;;;11.13;94.11
79463;BME280;68931;47.286;18.756;2023-10-31T00:30:25;99632.56;;;11.04;94.71
79463;BME280;68931;47.286;18.756;2023-10-31T00:30:57;99622.09;;;10.91;94.29
79463;BME280;68931;47.286;18.756;2023-10-31T00:31:29;99623.19;;;10.89;94.28
79463;BME280;68931;47.286;18.756;2023-10-31T00:32:04;99635.50;;;11.00;95.09
79463;BME280;68931;47.286;18.756;2023-10-31T00:32:37;99642.97;;;11.06;94.98
79463;BME280;68931;47.286;18.756;2023-10-31T00:33:09;99646.41;;;11.06;94.75
79463;BME280;68931;47.286;18.756;2023-10-31T00:33:41;99637.81;;;11.04;94.53
79463;BME280;68931;47.286;18.756;2023-10-31T00:34:16;99630.25;;;11.00;94.66
79463;BME280;68931;47.286;18.756;2023-10-31T00:34:48;99638.44;;;11.08;94.69
79463;BME280;68931;47.286;18.756;2023-10-31T00:35:20;99633.41;;;11.05;95.04
79463;BME280;68931;47.286;18.756;2023-10-31T00:35:52;99633.41;;;11.05;95.40
79463;BME280;68931;47.286;18.756;2023-10-31T00:36:27;99631.09;;;11.00;95.15
79463;BME280;68931;47.286;18.756;2023-10-31T00:36:59;99627.31;;;11.04;95.14
79463;BME280;68931;47.286;18.756;2023-10-31T00:37:31;99631.38;;;11.08;95.05
79463;BME280;68931;47.286;18.756;2023-10-31T00:38:06;99634.50;;;11.13;94.75
79463;BME280;68931;47.286;18.756;2023-10-31T00:38:38;99618.97;;;11.10;94.28
79463;BME280;68931;47.286;18.756;2023-10-31T00:39:10;99619.81;;;11.11;94.27
79463;BME280;68931;47.286;18.756;2023-10-31T00:39:42;99631.06;;;11.13;94.14
79463;BME280;68931;47.286;18.756;2023-10-31T00:40:14;99619.59;;;11.14;94.37
79463;BME280;68931;47.286;18.756;2023-10-31T00:40:48;99622.00;;;11.17;94.03
79463;BME280;68931;47.286;18.756;2023-10-31T00:41:20;99614.34;;;11.14;93.82
79463;BME280;68931;47.286;18.756;2023-10-31T00:41:52;99622.22;;;11.14;93.52
79463;BME280;68931;47.286;18.756;2023-10-31T00:42:26;99621.75;;;11.20;93.40
79463;BME280;68931;47.286;18.756;2023-10-31T00:42:58;99598.59;;;11.14;93.49
79463;BME280;68931;47.286;18.756;2023-10-31T00:43:32;99600.03;;;11.18;92.91
79463;BME280;68931;47.286;18.756;2023-10-31T00:44:04;99610.69;;;11.27;92.37
79463;BME280;68931;47.286;18.756;2023-10-31T00:44:36;99607.13;;;11.28;91.94
79463;BME280;68931;47.286;18.756;2023-10-31T00:45:09;99607.94;;;11.29;91.93
79463;BME280;68931;47.286;18.756;2023-10-31T00:45:41;99604.38;;;11.30;91.72
79463;BME280;68931;47.286;18.756;2023-10-31T00:46:13;99604.03;;;11.35;92.05
79463;BME280;68931;47.286;18.756;2023-10-31T00:46:45;99610.94;;;11.36;91.77
79463;BME280;68931;47.286;18.756;2023-10-31T00:47:17;99583.00;;;11.23;91.48
79463;BME280;68931;47.286;18.756;2023-10-31T00:47:49;99595.44;;;11.32;91.34
79463;BME280;68931;47.286;18.756;2023-10-31T00:48:21;99591.03;;;11.33;91.46
79463;BME280;68931;47.286;18.756;2023-10-31T00:48:53;99607.06;;;11.41;91.72
79463;BME280;68931;47.286;18.756;2023-10-31T00:49:26;99601.53;;;11.44;90.76
79463;BME280;68931;47.286;18.756;2023-10-31T00:50:06;99594.75;;;11.42;91.55
79463;BME280;68931;47.286;18.756;2023-10-31T00:50:38;99598.09;;;11.44;91.29
79463;BME280;68931;47.286;18.756;2023-10-31T00:51:10;99601.94;;;11.51;90.31
79463;BME280;68931;47.286;18.756;2023-10-31T00:51:43;99599.16;;;11.52;90.50
79463;BME280;68931;47.286;18.756;2023-10-31T00:52:17;99599.53;;;11.48;90.14
79463;BME280;68931;47.286;18.756;2023-10-31T00:52:49;99588.09;;;11.49;90.42
79463;BME280;68931;47.286;18.756;2023-10-31T00:53:21;99599.06;;;11.54;90.07
79463;BME280;68931;47.286;18.756;2023-10-31T00:53:53;99602.19;;;11.59;89.63
79463;BME280;68931;47.286;18.756;2023-10-31T00:54:25;99597.28;;;11.54;90.28
79463;BME280;68931;47.286;18.756;2023-10-31T00:54:57;99600.25;;;11.61;89.80
79463;BME280;68931;47.286;18.756;2023-10-31T00:55:29;99597.63;;;11.61;89.98
79463;BME280;68931;47.286;18.756;2023-10-31T00:56:01;99596.94;;;11.59;90.03
79463;BME280;68931;47.286;18.756;2023-10-31T00:56:34;99584.41;;;11.51;89.83
79463;BME280;68931;47.286;18.756;2023-10-31T00:57:06;99595.00;;;11.61;89.06
79463;BME280;68931;47.286;18.756;2023-10-31T00:57:41;99594.06;;;11.62;89.64
79463;BME280;68931;47.286;18.756;2023-10-31T00:58:15;99588.81;;;11.62;89.47
79463;BME280;68931;47.286;18.756;2023-10-31T00:58:47;99588.34;;;11.57;89.05
79463;BME280;68931;47.286;18.756;2023-10-31T00:59:20;99595.50;;;11.66;89.17
79463;BME280;68931;47.286;18.756;2023-10-31T00:59:51;99594.44;;;11.68;88.83
79463;BME280;68931;47.286;18.756;2023-10-31T01:00:26;99577.81;;;11.57;88.95
79463;BME280;68931;47.286;18.756;2023-10-31T01:00:58;99589.31;;;11.67;88.55
79463;BME280;68931;47.286;18.756;2023-10-31T01:01:30;99587.53;;;11.67;88.58
79463;BME280;68931;47.286;18.756;2023-10-31T01:02:02;99578.91;;;11.65;88.55
79463;BME280;68931;47.286;18.756;2023-10-31T01:02:34;99592.53;;;11.70;88.10
79463;BME280;68931;47.286;18.756;2023-10-31T01:03:07;99577.34;;;11.63;88.73
79463;BME280;68931;47.286;18.756;2023-10-31T01:03:39;99580.94;;;11.73;88.68
79463;BME280;68931;47.286;18.756;2023-10-31T01:04:11;99589.31;;;11.67;89.02
79463;BME280;68931;47.286;18.756;2023-10-31T01:04:43;99585.00;;;11.66;89.00
79463;BME280;68931;47.286;18.756;2023-10-31T01:05:15;99581.66;;;11.64;88.72
79463;BME280;68931;47.286;18.756;2023-10-31T01:05:47;99537.19;;;11.39;88.71
79463;BME280;68931;47.286;18.756;2023-10-31T01:06:19;99587.75;;;11.64;89.33
79463;BME280;68931;47.286;18.756;2023-10-31T01:06:51;99570.78;;;11.57;89.25
79463;BME280;68931;47.286;18.756;2023-10-31T01:07:23;99588.69;;;11.63;89.05
79463;BME280;68931;47.286;18.756;2023-10-31T01:07:55;99576.75;;;11.59;89.77
79463;BME280;68931;47.286;18.756;2023-10-31T01:08:27;99574.47;;;11.55;89.81
79463;BME280;68931;47.286;18.756;2023-10-31T01:09:02;99579.50;;;11.58;89.75
79463;BME280;68931;47.286;18.756;2023-10-31T01:09:34;99580.34;;;11.58;89.53
79463;BME280;68931;47.286;18.756;2023-10-31T01:10:07;99581.63;;;11.53;90.16
79463;BME280;68931;47.286;18.756;2023-10-31T01:10:39;99573.28;;;11.48;90.01
79463;BME280;68931;47.286;18.756;2023-10-31T01:11:11;99577.94;;;11.55;89.58
79463;BME280;68931;47.286;18.756;2023-10-31T01:11:43;99575.09;;;11.58;89.13
79463;BME280;68931;47.286;18.756;2023-10-31T01:12:15;99580.22;;;11.60;89.27
79463;BME280;68931;47.286;18.756;2023-10-31T01:12:47;99587.97;;;11.61;88.80
79463;BME280;68931;47.286;18.756;2023-10-31T01:13:19;99570.16;;;11.54;89.06
79463;BME280;68931;47.286;18.756;2023-10-31T01:13:51;99584.38;;;11.62;88.76
79463;BME280;68931;47.286;18.756;2023-10-31T01:14:23;99557.28;;;11.51;89.55
79463;BME280;68931;47.286;18.756;2023-10-31T01:14:55;99564.31;;;11.61;87.63
79463;BME280;68931;47.286;18.756;2023-10-31T01:15:27;99571.09;;;11.77;86.83
79463;BME280;68931;47.286;18.756;2023-10-31T01:15:59;99568.56;;;11.75;87.16
79463;BME280;68931;47.286;18.756;2023-10-31T01:16:31;99576.91;;;11.80;87.40
79463;BME280;68931;47.286;18.756;2023-10-31T01:17:03;99579.91;;;11.76;87.38
79463;BME280;68931;47.286;18.756;2023-10-31T01:17:35;99574.66;;;11.76;87.52
79463;BME280;68931;47.286;18.756;2023-10-31T01:18:07;99567.81;;;11.73;87.56
79463;BME280;68931;47.286;18.756;2023-10-31T01:18:39;99570.97;;;11.78;87.06
79463;BME280;68931;47.286;18.756;2023-10-31T01:19:12;99574.06;;;11.83;87.17
79463;BME280;68931;47.286;18.756;2023-10-31T01:19:44;99567.13;;;11.82;87.13
79463;BME280;68931;47.286;18.756;2023-10-31T01:20:15;99559.38;;;11.81;86.85
79463;BME280;68931;47.286;18.756;2023-10-31T01:20:48;99559.47;;;11.79;87.12
79463;BME280;68931;47.286;18.756;2023-10-31T01:21:19;99563.56;;;11.83;86.13
79463;BME280;68931;47.286;18.756;2023-10-31T01:21:51;99562.22;;;11.89;86.35
79463;BME280;68931;47.286;18.756;2023-10-31T01:22:24;99552.09;;;11.84;86.39
79463;BME280;68931;47.286;18.756;2023-10-31T01:22:56;99560.31;;;11.91;86.36
79463;BME280;68931;47.286;18.756;2023-10-31T01:23:27;99555.19;;;11.89;85.59
79463;BME280;68931;47.286;18.756;2023-10-31T01:23:59;99558.03;;;11.97;86.02
79463;BME280;68931;47.286;18.756;2023-10-31T01:24:31;99558.66;;;12.01;85.27
79463;BME280;68931;47.286;18.756;2023-10-31T01:25:04;99559.50;;;12.01;85.53
79463;BME280;68931;47.286;18.756;2023-10-31T01:25:36;99546.84;;;11.95;85.64
79463;BME280;68931;47.286;18.756;2023-10-31T01:26:08;99554.56;;;11.97;85.41
79463;BME280;68931;47.286;18.756;2023-10-31T01:26:40;99563.06;;;12.00;86.15
79463;BME280;68931;47.286;18.756;2023-10-31T01:27:12;99556.88;;;12.01;85.96
79463;BME280;68931;47.286;18.756;2023-10-31T01:27:46;99543.00;;;11.99;85.34
79463;BME280;68931;47.286;18.756;2023-10-31T01:28:18;99557.59;;;12.03;85.66
79463;BME280;68931;47.286;18.756;2023-10-31T01:28:51;99557.31;;;12.06;85.19
79463;BME280;68931;47.286;18.756;2023-10-31T01:29:25;99545.28;;;12.04;84.85
79463;BME280;68931;47.286;18.756;2023-10-31T01:29:59;99549.44;;;12.06;84.83
79463;BME280;68931;47.286;18.756;2023-10-31T01:30:32;99542.50;;;12.05;85.22
79463;BME280;68931;47.286;18.756;2023-10-31T01:31:04;99547.53;;;12.09;85.12
79463;BME280;68931;47.286;18.756;2023-10-31T01:31:36;99540.38;;;12.11;84.92
79463;BME280;68931;47.286;18.756;2023-10-31T01:32:12;99547.03;;;12.15;84.83
79463;BME280;68931;47.286;18.756;2023-10-31T01:32:47;99536.06;;;12.10;84.66
79463;BME280;68931;47.286;18.756;2023-10-31T01:33:19;99540.59;;;12.19;84.36
79463;BME280;68931;47.286;18.756;2023-10-31T01:33:51;99543.94;;;12.21;84.66
79463;BME280;68931;47.286;18.756;2023-10-31T01:34:23;99531.97;;;12.17;84.50
79463;BME280;68931;47.286;18.756;2023-10-31T01:34:55;99533.06;;;12.14;84.33
79463;BME280;68931;47.286;18.756;2023-10-31T01:35:27;99542.63;;;12.15;85.24
79463;BME280;68931;47.286;18.756;2023-10-31T01:35:59;99548.47;;;12.19;85.32
79463;BME280;68931;47.286;18.756;2023-10-31T01:36:31;99543.00;;;12.22;85.38
79463;BME280;68931;47.286;18.756;2023-10-31T01:37:03;99542.28;;;12.20;85.08
79463;BME280;68931;47.286;18.756;2023-10-31T01:37:35;99523.63;;;12.12;84.83
79463;BME280;68931;47.286;18.756;2023-10-31T01:38:10;99538.56;;;12.22;83.99
79463;BME280;68931;47.286;18.756;2023-10-31T01:38:42;99541.78;;;12.26;84.41
79463;BME280;68931;47.286;18.756;2023-10-31T01:39:14;99534.84;;;12.25;84.64
79463;BME280;68931;47.286;18.756;2023-10-31T01:39:46;99541.88;;;12.24;84.62
79463;BME280;68931;47.286;18.756;2023-10-31T01:40:18;99523.03;;;12.19;84.18
79463;BME280;68931;47.286;18.756;2023-10-31T01:40:50;99539.13;;;12.26;84.11
79463;BME280;68931;47.286;18.756;2023-10-31T01:41:23;99539.13;;;12.26;84.27
79463;BME280;68931;47.286;18.756;2023-10-31T01:41:55;99540.94;;;12.25;84.89
79463;BME280;68931;47.286;18.756;2023-10-31T01:42:27;99539.03;;;12.27;84.26
79463;BME280;68931;47.286;18.756;2023-10-31T01:42:59;99537.94;;;12.30;84.48
79463;BME280;68931;47.286;18.756;2023-10-31T01:43:35;99539.63;;;12.31;83.98
79463;BME280;68931;47.286;18.756;2023-10-31T01:44:08;99537.69;;;12.33;84.07
79463;BME280;68931;47.286;18.756;2023-10-31T01:44:41;99534.38;;;12.31;84.06
79463;BME280;68931;47.286;18.756;2023-10-31T01:45:13;99535.91;;;12.33;83.92
79463;BME280;68931;47.286;18.756;2023-10-31T01:45:45;99538.41;;;12.35;83.61
79463;BME280;68931;47.286;18.756;2023-10-31T01:46:17;99531.25;;;12.37;82.98
79463;BME280;68931;47.286;18.756;2023-10-31T01:46:49;99522.75;;;12.33;83.37
79463;BME280;68931;47.286;18.756;2023-10-31T01:47:21;99527.66;;;12.38;83.81
79463;BME280;68931;47.286;18.756;2023-10-31T01:47:55;99526.47;;;12.31;84.07
79463;BME280;68931;47.286;18.756;2023-10-31T01:48:29;99523.97;;;12.29;83.81
79463;BME280;68931;47.286;18.756;2023-10-31T01:49:02;99531.75;;;12.31;84.18
79463;BME280;68931;47.286;18.756;2023-10-31T01:49:38;99527.16;;;12.33;84.37
79463;BME280;68931;47.286;18.756;2023-10-31T01:50:10;99524.81;;;12.30;84.39
79463;BME280;68931;47.286;18.756;2023-10-31T01:50:43;99535.66;;;12.36;84.48
79463;BME280;68931;47.286;18.756;2023-10-31T01:51:15;99535.16;;;12.31;85.11
79463;BME280;68931;47.286;18.756;2023-10-31T01:51:47;99538.91;;;12.29;85.10
79463;BME280;68931;47.286;18.756;2023-10-31T01:52:20;99530.06;;;12.30;85.40
79463;BME280;68931;47.286;18.756;2023-10-31T01:52:52;99535.91;;;12.33;85.15
79463;BME280;68931;47.286;18.756;2023-10-31T01:53:29;99509.03;;;12.19;85.06
79463;BME280;68931;47.286;18.756;2023-10-31T01:54:02;99537.94;;;12.30;85.21
79463;BME280;68931;47.286;18.756;2023-10-31T01:54:34;99521.13;;;12.21;85.64
79463;BME280;68931;47.286;18.756;2023-10-31T01:55:07;99531.00;;;12.29;85.44
79463;BME280;68931;47.286;18.756;2023-10-31T01:55:39;99520.16;;;12.22;85.28
79463;BME280;68931;47.286;18.756;2023-10-31T01:56:11;99536.41;;;12.27;85.88
79463;BME280;68931;47.286;18.756;2023-10-31T01:56:44;99527.56;;;12.17;86.46
79463;BME280;68931;47.286;18.756;2023-10-31T01:57:18;99530.78;;;12.21;86.28
79463;BME280;68931;47.286;18.756;2023-10-31T01:57:53;99532.47;;;12.22;85.79
79463;BME280;68931;47.286;18.756;2023-10-31T01:58:29;99531.38;;;12.24;85.67
79463;BME280;68931;47.286;18.756;2023-10-31T01:59:02;99526.22;;;12.23;85.08
79463;BME280;68931;47.286;18.756;2023-10-31T01:59:39;99521.13;;;12.21;84.98
79463;BME280;68931;47.286;18.756;2023-10-31T02:00:13;99514.28;;;12.19;84.79
79463;BME280;68931;47.286;18.756;2023-10-31T02:00:46;99511.16;;;12.25;84.66
79463;BME280;68931;47.286;18.756;2023-10-31T02:01:21;99512.84;;;12.26;83.78
79463;BME280;68931;47.286;18.756;2023-10-31T02:01:54;99515.34;;;12.27;84.11
79463;BME280;68931;47.286;18.756;2023-10-31T02:02:32;99519.53;;;12.30;83.94
79463;BME280;68931;47.286;18.756;2023-10-31T02:03:05;99515.13;;;12.30;84.32
79463;BME280;68931;47.286;18.756;2023-10-31T02:03:37;99510.22;;;12.26;84.76
79463;BME280;68931;47.286;18.756;2023-10-31T02:04:10;99513.56;;;12.28;84.64
79463;BME280;68931;47.286;18.756;2023-10-31T02:04:42;99505.56;;;12.29;84.66
79463;BME280;68931;47.286;18.756;2023-10-31T02:05:17;99507.59;;;12.26;85.25
79463;BME280;68931;47.286;18.756;2023-10-31T02:05:51;99503.28;;;12.25;84.13
79463;BME280;68931;47.286;18.756;2023-10-31T02:06:23;99475.59;;;12.10;84.75
79463;BME280;68931;47.286;18.756;2023-10-31T02:06:55;99499.47;;;12.29;83.99
79463;BME280;68931;47.286;18.756;2023-10-31T02:07:27;99503.88;;;12.28;83.83
79463;BME280;68931;47.286;18.756;2023-10-31T02:07:59;99502.22;;;12.27;83.86
79463;BME280;68931;47.286;18.756;2023-10-31T02:08:31;99497.53;;;12.31;83.75
79463;BME280;68931;47.286;18.756;2023-10-31T02:09:06;99497.53;;;12.31;83.78
79463;BME280;68931;47.286;18.756;2023-10-31T02:09:38;99500.19;;;12.31;83.84
79463;BME280;68931;47.286;18.756;2023-10-31T02:10:10;99498.22;;;12.33;83.68
79463;BME280;68931;47.286;18.756;2023-10-31T02:10:42;99472.47;;;12.16;83.64
79463;BME280;68931;47.286;18.756;2023-10-31T02:11:14;99480.44;;;12.25;83.83
79463;BME280;68931;47.286;18.756;2023-10-31T02:11:46;99494.91;;;12.31;83.98
79463;BME280;68931;47.286;18.756;2023-10-31T02:12:35;99496.94;;;12.38;82.93
79463;BME280;68931;47.286;18.756;2023-10-31T02:13:15;99493.19;;;12.41;83.47
79463;BME280;68931;47.286;18.756;2023-10-31T02:13:47;99486.53;;;12.37;83.73
79463;BME280;68931;47.286;18.756;2023-10-31T02:14:20;99491.28;;;12.43;83.15
79463;BME280;68931;47.286;18.756;2023-10-31T02:14:53;99492.94;;;12.44;83.76
79463;BME280;68931;47.286;18.756;2023-10-31T02:15:25;99489.25;;;12.47;83.16
79463;BME280;68931;47.286;18.756;2023-10-31T02:15:59;99496.03;;;12.49;82.83
79463;BME280;68931;47.286;18.756;2023-10-31T02:16:31;99487.31;;;12.49;82.29
79463;BME280;68931;47.286;18.756;2023-10-31T02:17:03;99487.44;;;12.47;82.84
79463;BME280;68931;47.286;18.756;2023-10-31T02:17:35;99489.44;;;12.55;82.24
79463;BME280;68931;47.286;18.756;2023-10-31T02:18:10;99458.78;;;12.33;82.24
79463;BME280;68931;47.286;18.756;2023-10-31T02:18:44;99486.94;;;12.53;81.71
79463;BME280;68931;47.286;18.756;2023-10-31T02:19:21;99494.00;;;12.53;81.55
79463;BME280;68931;47.286;18.756;2023-10-31T02:19:53;99498.19;;;12.55;82.43
79463;BME280;68931;47.286;18.756;2023-10-31T02:20:25;99499.84;;;12.56;83.36
79463;BME280;68931;47.286;18.756;2023-10-31T02:20:58;99500.81;;;12.55;83.26
79463;BME280;68931;47.286;18.756;2023-10-31T02:21:31;99500.81;;;12.55;83.84
79463;BME280;68931;47.286;18.756;2023-10-31T02:22:04;99494.22;;;12.50;84.26
79463;BME280;68931;47.286;18.756;2023-10-31T02:22:36;99494.22;;;12.50;84.23
79463;BME280;68931;47.286;18.756;2023-10-31T02:23:08;99482.53;;;12.42;83.82
79463;BME280;68931;47.286;18.756;2023-10-31T02:23:40;99494.50;;;12.47;83.99
79463;BME280;68931;47.286;18.756;2023-10-31T02:24:11;99490.06;;;12.47;83.26
79463;BME280;68931;47.286;18.756;2023-10-31T02:24:43;99488.97;;;12.50;83.00
79463;BME280;68931;47.286;18.756;2023-10-31T02:25:17;99493.03;;;12.54;83.52
79463;BME280;68931;47.286;18.756;2023-10-31T02:25:49;99474.53;;;12.44;82.97
79463;BME280;68931;47.286;18.756;2023-10-31T02:26:21;99486.53;;;12.58;82.59
79463;BME280;68931;47.286;18.756;2023-10-31T02:26:53;99479.50;;;12.58;82.34
79463;BME280;68931;47.286;18.756;2023-10-31T02:27:27;99476.84;;;12.58;82.04
79463;BME280;68931;47.286;18.756;2023-10-31T02:27:59;99486.78;;;12.66;81.54
79463;BME280;68931;47.286;18.756;2023-10-31T02:28:31;99474.09;;;12.60;81.76
79463;BME280;68931;47.286;18.756;2023-10-31T02:29:04;99470.06;;;12.56;82.13
79463;BME280;68931;47.286;18.756;2023-10-31T02:29:36;99486.44;;;12.59;82.51
79463;BME280;68931;47.286;18.756;2023-10-31T02:30:08;99477.00;;;12.57;83.09
79463;BME280;68931;47.286;18.756;2023-10-31T02:30:41;99465.88;;;12.53;82.38
79463;BME280;68931;47.286;18.756;2023-10-31T02:31:13;99475.91;;;12.59;81.80
79463;BME280;68931;47.286;18.756;2023-10-31T02:31:45;99485.94;;;12.65;81.88
79463;BME280;68931;47.286;18.756;2023-10-31T02:32:21;99475.66;;;12.62;82.10
79463;BME280;68931;47.286;18.756;2023-10-31T02:32:53;99489.25;;;12.67;81.73
79463;BME280;68931;47.286;18.756;2023-10-31T02:33:25;99487.47;;;12.68;81.33
79463;BME280;68931;47.286;18.756;2023-10-31T02:33:57;99496.91;;;12.70;81.31
79463;BME280;68931;47.286;18.756;2023-10-31T02:34:30;99492.50;;;12.71;81.59
79463;BME280;68931;47.286;18.756;2023-10-31T02:35:05;99480.16;;;12.71;81.14
79463;BME280;68931;47.286;18.756;2023-10-31T02:35:37;99483.75;;;12.70;81.70
79463;BME280;68931;47.286;18.756;2023-10-31T02:36:09;99483.50;;;12.73;80.45
79463;BME280;68931;47.286;18.756;2023-10-31T02:36:41;99484.06;;;12.77;80.29
79463;BME280;68931;47.286;18.756;2023-10-31T02:37:14;99479.22;;;12.72;80.70
79463;BME280;68931;47.286;18.756;2023-10-31T02:37:47;99480.03;;;12.73;80.55
79463;BME280;68931;47.286;18.756;2023-10-31T02:38:19;99492.44;;;12.82;80.64
79463;BME280;68931;47.286;18.756;2023-10-31T02:38:51;99496.88;;;12.81;80.99
79463;BME280;68931;47.286;18.756;2023-10-31T02:39:23;99483.63;;;12.72;80.57
79463;BME280;68931;47.286;18.756;2023-10-31T02:39:55;99509.63;;;12.86;80.04
79463;BME280;68931;47.286;18.756;2023-10-31T02:40:27;99501.75;;;12.86;80.59
79463;BME280;68931;47.286;18.756;2023-10-31T02:40:59;99481.97;;;12.71;81.33
79463;BME280;68931;47.286;18.756;2023-10-31T02:41:31;99496.88;;;12.81;81.46
79463;BME280;68931;47.286;18.756;2023-10-31T02:42:03;99465.50;;;12.58;81.18
79463;BME280;68931;47.286;18.756;2023-10-31T02:42:35;99467.78;;;12.62;80.84
79463;BME280;68931;47.286;18.756;2023-10-31T02:43:07;99469.44;;;12.63;81.00
79463;BME280;68931;47.286;18.756;2023-10-31T02:43:40;99495.31;;;12.79;81.29
79463;BME280;68931;47.286;18.756;2023-10-31T02:44:17;99511.44;;;12.86;81.62
79463;BME280;68931;47.286;18.756;2023-10-31T02:44:49;99493.66;;;12.78;80.38
79463;BME280;68931;47.286;18.756;2023-10-31T02:45:24;99499.38;;;12.83;80.14
79463;BME280;68931;47.286;18.756;2023-10-31T02:45:56;99503.66;;;12.84;80.49
79463;BME280;68931;47.286;18.756;2023-10-31T02:46:28;99501.63;;;12.88;79.84
79463;BME280;68931;47.286;18.756;2023-10-31T02:47:00;99504.38;;;12.86;80.19
79463;BME280;68931;47.286;18.756;2023-10-31T02:47:32;99497.91;;;12.90;79.72
79463;BME280;68931;47.286;18.756;2023-10-31T02:48:04;99503.28;;;12.89;80.98
79463;BME280;68931;47.286;18.756;2023-10-31T02:48:36;99486.34;;;12.81;82.04
79463;BME280;68931;47.286;18.756;2023-10-31T02:49:11;99499.09;;;12.86;82.37
79463;BME280;68931;47.286;18.756;2023-10-31T02:49:59;99500.91;;;12.86;81.07
79463;BME280;68931;47.286;18.756;2023-10-31T02:53:52;99485.63;;;12.79;79.90
79463;BME280;68931;47.286;18.756;2023-10-31T02:54:14;99461.16;;;12.68;79.60